Motte Rimrock Reserve, California Weather observations

Data are for 10 minute period ending at time listed.
 Day   Time   Solar   Ave.   Ave.  Ave.  Vector  Max.   Baro.   Total    
  of    of     Rad.   Air    Rel.  Wind   Wind   Wind  Press.  Precip.   
Year   Day            Temp.  Hum.  Speed  Dir.   Gust                    
2014   (PST)  Kw/m2    F      %     mph   deg.    mph    mb.     in.     
-------------------------------------------------------------------------
 108   15:10   0.34   69.6    46   12.2   314    17.2   943.5    0.00 
 108   15:20   0.39   69.3    46   13.3   314    16.7   943.5    0.00 
 108   15:30   0.36   69.1    48   11.5   309    15.9   943.6    0.00 
 108   15:40   0.27   68.3    50   12.9   312    17.8   943.5    0.00 
 108   15:50   0.23   67.7    50   13.5   318    17.4   943.5    0.00 
 108   16:00   0.15   67.4    50   12.8   311    17.6   943.5    0.00 
 108   16:10   0.12   67.0    51   13.5   317    17.4   943.6    0.00 
 108   16:20   0.12   66.4    54   14.0   311    17.8   943.6    0.00 
 108   16:30   0.09   65.2    59   14.0   307    17.3   943.7    0.00 
 108   16:40   0.12   64.7    60   14.8   298    18.0   943.6    0.00 
 108   16:50   0.26   65.9    57   13.7   302    17.5   943.6    0.00 
 108   17:00   0.23   66.5    55   14.2   304    17.9   943.6    0.00 
 108   17:10   0.18   66.2    56   14.3   299    18.2   943.8    0.00 
 108   17:20   0.15   65.4    57   15.6   301    19.8   943.9    0.00 
 108   17:30   0.09   64.6    59   14.4   304    18.0   943.9    0.00 
 108   17:40   0.07   64.0    60   14.1   303    18.9   944.0    0.00 
 108   17:50   0.03   63.0    62   13.3   303    17.8   944.1    0.00 
 108   18:00   0.03   62.6    64   12.8   307    16.7   944.2    0.00 
 108   18:10   0.01   62.0    65   12.7   304    17.1   944.3    0.00 
 108   18:20   0.00   61.3    67   11.6   305    15.9   944.4    0.00 
 108   18:30   0.00   60.7    69   12.7   302    15.7   944.4    0.00 
 108   18:40   0.00   60.2    70   11.8   304    16.0   944.5    0.00 
 108   18:50   0.00   59.7    71   12.6   308    16.3   944.6    0.00 
 108   19:00   0.00   59.3    72   10.6   307    13.4   944.7    0.00 
 108   19:10   0.00   59.1    72   11.3   307    14.4   944.8    0.00 
 108   19:20   0.00   58.8    73   10.8   306    13.2   944.9    0.00 
 108   19:30   0.00   58.5    73    9.9   312    12.7   945.1    0.00 
 108   19:40   0.00   58.2    74    9.2   310    11.7   945.2    0.00 
 108   19:50   0.00   58.1    74    9.4   307    11.8   945.2    0.00 
 108   20:00   0.00   57.9    74    5.7   310     9.9   945.4    0.00 
 108   20:10   0.00   57.7    75    1.3    22     3.0   945.6    0.00 
 108   20:20   0.00   57.8    75    1.1    12     3.5   945.8    0.00 
 108   20:30   0.00   57.9    74    1.5    68     3.7   945.9    0.00 
 108   20:40   0.00   57.5    75    3.5   110     6.2   945.8    0.00 
 108   20:50   0.00   56.2    78    5.6   123     6.9   945.7    0.00 
 108   21:00   0.00   55.8    79    3.2   133     4.8   945.7    0.00 
 108   21:10   0.00   55.6    79    2.2   154     3.3   945.7    0.00 
 108   21:20   0.00   55.5    79    1.4   183     2.0   945.7    0.00 
 108   21:30   0.00   55.3    80    2.5   184     2.9   945.7    0.00 
 108   21:40   0.00   55.1    81    1.6   173     2.4   945.7    0.00 
 108   21:50   0.00   55.1    81    1.3   167     1.9   945.7    0.00 
 108   22:00   0.00   55.0    81    1.4   139     1.8   945.7    0.00 
 108   22:10   0.00   55.0    81    0.9   139     1.5   945.7    0.00 
 108   22:20   0.00   54.8    82    0.6   112     2.1   945.9    0.00 
 108   22:30   0.00   55.0    81    0.7    38     1.3   945.9    0.00 
 108   22:40   0.00   54.9    81    1.1   322     1.4   946.0    0.00 
 108   22:50   0.00   54.6    81    0.5   322     1.3   946.0    0.00 
 108   23:00   0.00   54.5    81    0.3   114     2.6   946.0    0.00 
 108   23:10   0.00   54.3    82    2.5   139     3.0   946.0    0.00 
 108   23:20   0.00   54.0    83    1.6   152     2.3   946.0    0.00 
 108   23:30   0.00   54.4    82    1.5   169     2.5   945.9    0.00 
 108   23:40   0.00   54.4    82    1.2   171     2.3   946.0    0.00 
 108   23:50   0.00   54.3    83    0.2   136     1.2   946.0    0.00 
 109    0:00   0.00   54.2    83    0.0     0     0.0   946.0    0.00 
 109    0:10   0.00   54.3    83    0.2   136     0.9   946.0    0.00 
 109    0:20   0.00   54.8    82    0.9    62     2.4   946.0    0.00 
 109    0:30   0.00   54.2    82    1.6   113     2.9   945.9    0.00 
 109    0:40   0.00   53.3    84    2.5   143     3.2   945.9    0.00 
 109    0:50   0.00   53.2    85    2.6   162     3.1   945.9    0.00 
 109    1:00   0.00   53.0    85    1.8   175     2.2   945.9    0.00 
 109    1:10   0.00   52.9    86    1.7   176     2.0   945.8    0.00 
 109    1:20   0.00   52.8    86    2.0   159     2.4   945.7    0.00 
 109    1:30   0.00   52.7    86    2.4   152     3.7   945.6    0.00 
 109    1:40   0.00   52.3    86    2.3   143     3.4   945.6    0.00 
 109    1:50   0.00   52.2    86    2.9   136     3.8   945.5    0.00 
 109    2:00   0.00   52.2    86    0.9   143     2.8   945.6    0.00 
 109    2:10   0.00   52.0    86    1.0   304     2.1   945.6    0.00 
 109    2:20   0.00   52.6    86    2.4   317     3.9   945.6    0.00 
 109    2:30   0.00   52.6    86    4.1   328     5.5   945.7    0.00 
 109    2:40   0.00   52.6    86    4.9   332     6.0   945.7    0.00 
 109    2:50   0.00   52.4    86    5.1   327     5.6   945.7    0.00 
 109    3:00   0.00   52.0    87    5.0   332     5.8   945.6    0.00 
 109    3:10   0.00   52.0    88    4.9   352     5.8   945.6    0.00 
 109    3:20   0.00   52.2    87    3.4    26     4.7   945.6    0.00 
 109    3:30   0.00   52.4    87    3.8     4     4.8   945.6    0.00 
 109    3:40   0.00   52.0    87    3.3   347     4.5   945.6    0.00 
 109    3:50   0.00   51.5    88    3.3   324     3.9   945.4    0.00 
 109    4:00   0.00   51.7    89    2.8   319     3.1   945.4    0.00 
 109    4:10   0.00   51.9    88    2.6   337     3.1   945.3    0.00 
 109    4:20   0.00   52.0    88    2.3   347     2.9   945.2    0.00 
 109    4:30   0.00   51.8    89    2.3   325     2.8   945.2    0.00 
 109    4:40   0.00   51.9    89    1.6   327     2.1   945.2    0.00 
 109    4:50   0.00   52.2    88    0.8   327     1.3   945.3    0.00 
 109    5:00   0.00   51.9    88    1.8   322     2.3   945.4    0.00 
 109    5:10   0.00   51.6    88    2.6   328     3.8   945.5    0.00 
 109    5:20   0.00   51.3    89    4.1   325     4.5   945.6    0.00 
 109    5:30   0.00   51.1    89    5.1   312     6.6   945.7    0.00 
 109    5:40   0.02   51.0    90    5.9   308     7.0   945.8    0.00 
 109    5:50   0.04   51.2    90    5.8   320     6.6   945.8    0.00 
 109    6:00   0.07   51.7    89    5.5   322     6.7   946.0    0.00 
 109    6:10   0.09   52.2    89    5.4   322     8.1   946.0    0.00 
 109    6:20   0.12   52.9    88    8.2   311    10.3   946.0    0.00 
 109    6:30   0.15   53.4    87    7.9   321     9.3   946.2    0.00 
 109    6:40   0.19   53.6    86    9.2   320    13.6   946.4    0.00 
 109    6:50   0.22   53.7    85    9.9   311    13.1   946.5    0.00 
 109    7:00   0.26   54.2    84    9.7   311    12.6   946.7    0.00 
 109    7:10   0.29   54.5    83   10.7   313    14.1   946.8    0.00 
 109    7:20   0.33   55.1    82    9.1   328    12.8   946.9    0.00 
 109    7:30   0.37   55.8    80    9.1   324    13.0   946.9    0.00 
 109    7:40   0.41   56.4    78    9.9   328    13.5   947.0    0.00 
 109    7:50   0.44   57.0    77   10.9   322    13.8   947.2    0.00 
 109    8:00   0.48   57.7    76    9.4   331    11.8   947.4    0.00 
 109    8:10   0.51   58.8    73    7.5   326    12.2   947.4    0.00 
 109    8:20   0.54   60.3    70    4.4   312     8.4   947.5    0.00 
 109    8:30   0.58   60.4    69    4.8   281     7.2   947.7    0.00 
 109    8:40   0.61   61.4    67    2.9   259     5.0   947.7    0.00 
 109    8:50   0.64   63.5    62    2.5   253     5.1   947.9    0.00 
 109    9:00   0.67   63.7    61    2.2   204     4.8   948.1    0.00 
 109    9:10   0.70   64.9    59    2.8   306     6.1   948.2    0.00 
 109    9:20   0.73   65.0    58    3.3   314     6.2   948.2    0.00 
 109    9:30   0.75   66.0    56    2.3   163     4.8   948.2    0.00 
 109    9:40   0.78   68.0    52    2.8   302     6.1   948.2    0.00 
 109    9:50   0.80   69.0    50    2.3   286     4.4   948.3    0.00 
 109   10:00   0.80   69.1    51    4.6   120     7.5   948.3    0.00 
 109   10:10   0.85   69.5    50    3.4    79     7.1   948.3    0.00 
 109   10:20   0.87   70.3    47    2.4   352     5.3   948.3    0.00 
 109   10:30   0.84   70.9    46    2.9   349     7.5   948.1    0.00 
 109   10:40   0.86   72.2    42    4.4   259     8.3   948.1    0.00 
 109   10:50   0.83   72.2    41    3.8   270     8.7   948.0    0.00 
 109   11:00   0.92   72.3    43    6.0   291    13.4   948.0    0.00 
 109   11:10   0.90   71.9    44    9.7   312    13.9   947.9    0.00 
 109   11:20   0.85   72.4    44   10.8   288    17.8   947.9    0.00 
 109   11:30   0.94   72.4    44   11.7   304    17.4   947.8    0.00 
 109   11:40   0.95   72.8    44   13.1   296    18.9   947.8    0.00 
 109   11:50   0.96   72.5    44   14.9   303    20.7   947.8    0.00 
 109   12:00   0.96   73.3    43   14.5   305    20.2   947.8    0.00 
 109   12:10   0.78   72.2    44   16.0   298    20.6   947.8    0.00 
 109   12:20   0.88   72.3    44   14.6   311    20.9   947.8    0.00 
 109   12:30   0.81   72.5    44   13.4   299    19.3   947.9    0.00 
 109   12:40   0.67   73.4    42   12.7   312    18.3   947.8    0.00 
 109   12:50   0.78   73.5    41   12.8   314    19.0   947.8    0.00 
 109   13:00   0.97   75.4    35   12.1   311    17.4   947.7    0.00 
 109   13:10   0.91   75.7    33   12.6   310    19.6   947.6    0.00 
 109   13:20   0.80   75.3    34   10.9   295    16.9   947.4    0.00 
 109   13:30   0.82   75.7    33   13.4   307    17.5   947.4    0.00 
 109   13:40   0.86   75.9    34   12.8   297    19.4   947.3    0.00 
 109   13:50   0.85   76.2    34   12.3   298    16.6   947.2    0.00 
 109   14:00   0.76   76.3    32   12.4   314    20.2   947.0    0.00 
 109   14:10   0.73   76.3    33   12.2   304    17.8   946.9    0.00 
 109   14:20   0.65   76.4    33   11.7   300    16.4   946.9    0.00 
 109   14:30   0.66   76.5    32   11.8   307    17.9   946.9    0.00 
 109   14:40   0.55   76.5    32   10.8   287    17.0   946.8    0.00 
 109   14:50   0.60   77.0    32   11.3   297    15.6   946.8    0.00 
 109   15:00   0.53   76.4    31    9.5   301    14.1   946.8    0.00 

Return to Motte Rimrock Reserve graphs page.


Western Regional Climate Center,wrcc@dri.edu